createdAt,value
2018-08-09T00:00:40.949Z,19.50
2018-08-09T00:03:09.235Z,19.30
2018-08-09T00:05:37.633Z,19.30
2018-08-09T00:08:06.074Z,19.30
2018-08-09T00:10:34.554Z,19.40
2018-08-09T00:13:02.858Z,19.30
2018-08-09T00:15:31.199Z,19.30
2018-08-09T00:17:59.526Z,19.40
2018-08-09T00:20:27.883Z,19.60
2018-08-09T00:22:56.265Z,19.50
2018-08-09T00:25:24.625Z,19.40
2018-08-09T00:27:53.037Z,19.40
2018-08-09T00:30:21.441Z,19.30
2018-08-09T00:32:49.792Z,20.00
2018-08-09T00:35:18.174Z,20.30
2018-08-09T00:37:46.553Z,19.90
2018-08-09T00:40:14.869Z,19.60
2018-08-09T00:42:43.260Z,19.40
2018-08-09T00:45:11.597Z,19.50
2018-08-09T00:47:39.992Z,20.00
2018-08-09T00:50:08.345Z,20.20
2018-08-09T00:52:36.809Z,20.40
2018-08-09T00:55:05.348Z,20.40
2018-08-09T00:57:33.629Z,20.50
2018-08-09T01:00:02.014Z,20.60
2018-08-09T01:02:30.371Z,20.60
2018-08-09T01:04:58.681Z,20.30
2018-08-09T01:07:27.088Z,19.60
2018-08-09T01:09:55.542Z,19.10
2018-08-09T01:12:23.934Z,18.90
2018-08-09T01:14:52.317Z,18.80
2018-08-09T01:17:20.744Z,18.80
2018-08-09T01:19:49.122Z,19.10
2018-08-09T01:22:18.470Z,19.20
2018-08-09T01:24:46.801Z,19.20
2018-08-09T01:27:15.132Z,19.30
2018-08-09T01:29:43.465Z,19.30
2018-08-09T01:32:11.785Z,19.60
2018-08-09T01:34:40.081Z,20.00
2018-08-09T01:37:08.410Z,20.10
2018-08-09T01:39:36.791Z,19.80
2018-08-09T01:42:16.556Z,19.50
2018-08-09T01:44:44.945Z,19.80
2018-08-09T01:47:13.321Z,20.00
2018-08-09T01:49:41.719Z,20.00
2018-08-09T01:52:10.078Z,20.30
2018-08-09T01:54:38.472Z,20.30
2018-08-09T01:57:06.738Z,19.50
2018-08-09T01:59:35.086Z,18.90
2018-08-09T02:02:03.409Z,18.50
2018-08-09T02:04:31.690Z,18.50
2018-08-09T02:07:00.043Z,18.70
2018-08-09T02:09:32.361Z,19.00
2018-08-09T02:12:01.103Z,19.40
2018-08-09T02:14:29.430Z,19.40
2018-08-09T02:16:57.809Z,18.80
2018-08-09T02:19:26.183Z,18.40
2018-08-09T02:21:54.557Z,18.30
2018-08-09T02:24:22.909Z,18.40
2018-08-09T02:26:51.217Z,18.30
2018-08-09T02:29:19.518Z,18.20
2018-08-09T02:31:47.790Z,18.20
2018-08-09T02:34:16.158Z,18.60
2018-08-09T02:36:44.465Z,19.10
2018-08-09T02:39:12.852Z,19.30
2018-08-09T02:41:41.153Z,18.90
2018-08-09T02:44:09.507Z,18.30
2018-08-09T02:46:37.886Z,18.10
2018-08-09T02:49:06.185Z,17.90
2018-08-09T02:51:34.515Z,17.80
2018-08-09T02:54:02.890Z,17.70
2018-08-09T02:56:31.244Z,17.60
2018-08-09T02:58:59.626Z,17.70
2018-08-09T03:01:28.014Z,17.80
2018-08-09T03:03:56.496Z,18.10
2018-08-09T03:06:24.967Z,18.50
2018-08-09T03:08:53.530Z,18.80
2018-08-09T03:11:21.849Z,18.40
2018-08-09T03:13:50.179Z,18.10
2018-08-09T03:16:18.562Z,17.90
2018-08-09T03:18:46.999Z,17.80
2018-08-09T03:21:15.467Z,17.70
2018-08-09T03:23:43.894Z,17.60
2018-08-09T03:26:12.306Z,17.50
2018-08-09T03:28:40.712Z,17.60
2018-08-09T03:31:09.172Z,17.70
2018-08-09T03:33:37.647Z,17.80
2018-08-09T03:36:06.169Z,18.10
2018-08-09T03:38:34.608Z,17.80
2018-08-09T03:41:03.057Z,17.70
2018-08-09T03:43:31.473Z,17.80
2018-08-09T03:45:59.894Z,18.10
2018-08-09T03:48:28.392Z,18.40
2018-08-09T03:50:56.786Z,18.70
2018-08-09T03:53:25.162Z,18.80
2018-08-09T03:55:53.630Z,19.00
2018-08-09T03:58:22.076Z,19.10
2018-08-09T04:00:50.478Z,18.70
2018-08-09T04:03:18.957Z,18.10
2018-08-09T04:05:47.390Z,17.90
2018-08-09T04:08:15.772Z,17.70
2018-08-09T04:10:44.205Z,17.70
2018-08-09T04:13:12.675Z,17.50
2018-08-09T04:15:41.094Z,17.60
2018-08-09T04:18:09.438Z,17.60
2018-08-09T04:20:37.733Z,17.70
2018-08-09T04:23:06.046Z,17.90
2018-08-09T04:25:34.515Z,18.50
2018-08-09T04:28:02.994Z,18.50
2018-08-09T04:30:31.379Z,18.60
2018-08-09T04:32:59.814Z,18.10
2018-08-09T04:35:28.239Z,18.10
2018-08-09T04:37:56.591Z,18.50
2018-08-09T04:40:24.863Z,18.90
2018-08-09T04:42:53.226Z,19.10
2018-08-09T04:45:21.521Z,19.20
2018-08-09T04:47:49.825Z,19.30
2018-08-09T04:50:18.254Z,18.80
2018-08-09T04:52:46.734Z,19.10
2018-08-09T04:55:15.074Z,19.20
2018-08-09T04:57:43.413Z,19.50
2018-08-09T05:00:11.842Z,19.70
2018-08-09T05:02:40.157Z,20.00
2018-08-09T05:05:08.572Z,20.30
2018-08-09T05:07:37.015Z,19.90
2018-08-09T05:10:09.895Z,19.50
2018-08-09T05:12:39.600Z,19.40
2018-08-09T05:15:08.005Z,19.60
2018-08-09T05:17:36.311Z,20.00
2018-08-09T05:20:05.562Z,19.90
2018-08-09T05:22:33.979Z,20.00
2018-08-09T05:25:02.344Z,20.20
2018-08-09T05:27:30.790Z,20.50
2018-08-09T05:29:59.232Z,20.60
2018-08-09T05:32:27.550Z,20.30
2018-08-09T05:34:55.912Z,20.00
2018-08-09T05:37:24.412Z,19.70
2018-08-09T05:39:52.845Z,19.60
2018-08-09T05:42:21.285Z,19.50
2018-08-09T05:44:49.692Z,19.60
2018-08-09T05:47:18.065Z,19.60
2018-08-09T05:49:46.446Z,19.60
2018-08-09T05:52:14.794Z,19.70
2018-08-09T05:54:43.174Z,19.70
2018-08-09T05:57:11.567Z,19.70
2018-08-09T05:59:39.965Z,20.00
2018-08-09T06:02:08.415Z,20.00
2018-08-09T06:04:36.813Z,20.10
2018-08-09T06:07:05.510Z,20.10
2018-08-09T06:09:33.996Z,20.20
2018-08-09T06:12:02.322Z,20.30
2018-08-09T06:14:30.658Z,20.20
2018-08-09T06:16:58.992Z,20.20
2018-08-09T06:19:27.512Z,20.20
2018-08-09T06:21:55.875Z,20.30
2018-08-09T06:24:24.377Z,20.30
2018-08-09T06:26:52.752Z,20.30
2018-08-09T06:29:21.094Z,20.30
2018-08-09T06:31:49.460Z,20.50
2018-08-09T06:34:17.791Z,20.50
2018-08-09T06:36:46.062Z,20.50
2018-08-09T06:39:14.436Z,20.50
2018-08-09T06:41:42.869Z,20.60
2018-08-09T06:44:11.179Z,20.70
2018-08-09T06:46:40.291Z,20.80
2018-08-09T06:49:08.759Z,20.90
2018-08-09T06:51:37.207Z,21.00
2018-08-09T06:54:05.642Z,21.10
2018-08-09T06:56:34.122Z,21.40
2018-08-09T06:59:02.611Z,22.30
2018-08-09T07:01:31.095Z,22.60
2018-08-09T07:03:59.518Z,22.80
2018-08-09T07:06:27.844Z,22.90
2018-08-09T07:08:56.185Z,23.30
2018-08-09T07:11:24.650Z,23.60
2018-08-09T07:13:53.020Z,23.70
2018-08-09T07:16:22.118Z,23.70
2018-08-09T07:18:50.422Z,23.60
2018-08-09T07:21:18.709Z,23.30
2018-08-09T07:23:47.182Z,23.80
2018-08-09T07:26:15.633Z,24.10
2018-08-09T07:28:44.015Z,24.80
2018-08-09T07:31:12.448Z,25.60
2018-08-09T07:33:40.816Z,25.70
2018-08-09T07:36:09.231Z,25.90
2018-08-09T07:38:37.558Z,25.50
2018-08-09T07:41:05.858Z,25.70
2018-08-09T07:43:34.211Z,25.60
2018-08-09T07:46:02.615Z,25.80
2018-08-09T07:48:30.996Z,26.40
2018-08-09T07:50:59.368Z,26.00
2018-08-09T07:53:27.695Z,25.30
2018-08-09T07:55:55.988Z,25.50
2018-08-09T07:58:24.343Z,25.90
2018-08-09T08:00:52.748Z,26.40
2018-08-09T08:03:21.102Z,26.50
2018-08-09T08:05:49.501Z,27.00
2018-08-09T08:08:17.701Z,27.80
2018-08-09T08:10:48.090Z,27.10
2018-08-09T08:13:18.334Z,27.50
2018-08-09T08:15:46.843Z,27.20
2018-08-09T08:18:15.319Z,27.30
2018-08-09T08:20:43.655Z,27.60
2018-08-09T08:23:12.038Z,28.40
2018-08-09T08:25:40.336Z,27.80
2018-08-09T08:28:08.659Z,28.10
2018-08-09T08:30:37.065Z,28.10
2018-08-09T08:33:05.551Z,29.00
2018-08-09T08:35:33.895Z,28.60
2018-08-09T08:38:02.349Z,29.10
2018-08-09T08:40:30.722Z,29.20
2018-08-09T08:42:59.134Z,29.30
2018-08-09T08:45:27.600Z,29.70
2018-08-09T08:47:56.019Z,30.20
2018-08-09T08:50:24.374Z,30.40
2018-08-09T08:52:52.773Z,30.60
2018-08-09T08:55:21.342Z,30.20
2018-08-09T08:57:49.542Z,29.40
2018-08-09T09:00:17.921Z,29.80
2018-08-09T09:02:46.289Z,29.90
2018-08-09T09:05:14.623Z,29.80
2018-08-09T09:07:42.910Z,30.70
2018-08-09T09:10:12.727Z,31.00
2018-08-09T09:12:41.213Z,31.50
2018-08-09T09:15:12.571Z,31.80
2018-08-09T09:17:41.889Z,31.70
2018-08-09T09:29:40.726Z,31.50
2018-08-09T09:32:08.957Z,31.80
2018-08-09T09:34:37.190Z,32.00
2018-08-09T09:37:05.592Z,31.90
2018-08-09T09:39:33.841Z,32.10
2018-08-09T09:42:02.046Z,31.50
2018-08-09T09:44:30.267Z,32.40
2018-08-09T09:46:58.473Z,32.40
2018-08-09T09:49:26.690Z,32.00
2018-08-09T09:51:54.925Z,32.40
2018-08-09T09:54:23.177Z,32.40
2018-08-09T09:56:51.401Z,32.90
2018-08-09T09:59:19.618Z,33.10
2018-08-09T10:01:47.862Z,32.90
2018-08-09T10:04:15.997Z,32.90
2018-08-09T10:06:44.243Z,33.10
2018-08-09T10:09:12.719Z,33.40
2018-08-09T10:11:41.485Z,33.50
2018-08-09T10:14:09.724Z,33.20
2018-08-09T10:16:37.985Z,33.20
2018-08-09T10:19:06.164Z,33.50
2018-08-09T10:21:34.414Z,33.90
2018-08-09T10:24:02.691Z,34.00
2018-08-09T10:26:30.909Z,34.30
2018-08-09T10:28:59.145Z,34.30
2018-08-09T10:31:27.332Z,35.10
2018-08-09T10:33:55.560Z,35.20
2018-08-09T10:36:23.777Z,35.50
2018-08-09T10:38:52.055Z,35.20
2018-08-09T10:41:20.276Z,35.30
2018-08-09T10:43:48.717Z,35.40
2018-08-09T10:46:17.093Z,35.20
2018-08-09T10:48:45.389Z,35.50
2018-08-09T10:51:13.617Z,36.00
2018-08-09T10:53:42.428Z,36.00
2018-08-09T10:56:10.618Z,36.60
2018-08-09T10:58:38.861Z,36.70
2018-08-09T11:01:07.174Z,36.90
2018-08-09T11:03:35.495Z,36.90
2018-08-09T11:06:03.725Z,36.10
2018-08-09T11:08:32.087Z,35.90
2018-08-09T11:11:04.950Z,36.00
2018-08-09T11:13:33.261Z,35.90
2018-08-09T11:16:01.739Z,35.00
2018-08-09T11:18:30.086Z,35.70
2018-08-09T11:20:58.522Z,35.90
2018-08-09T11:23:26.803Z,35.40
2018-08-09T11:25:55.315Z,35.40
2018-08-09T11:28:23.575Z,34.50
2018-08-09T11:30:51.957Z,33.40
2018-08-09T11:33:20.324Z,33.00
2018-08-09T11:35:48.762Z,32.30
2018-08-09T11:38:17.067Z,31.90
2018-08-09T11:40:45.536Z,31.50
2018-08-09T11:43:13.973Z,31.00
2018-08-09T11:45:42.351Z,30.70
2018-08-09T11:48:10.676Z,30.70
2018-08-09T11:50:38.973Z,30.70
2018-08-09T11:53:07.276Z,30.90
2018-08-09T11:55:35.618Z,31.00
2018-08-09T11:58:04.379Z,30.70
2018-08-09T12:00:32.943Z,30.60
2018-08-09T12:03:01.304Z,30.40
2018-08-09T12:05:29.739Z,30.30
2018-08-09T12:07:58.216Z,30.30
2018-08-09T12:10:26.589Z,28.80
2018-08-09T12:12:54.972Z,27.10
2018-08-09T12:15:23.326Z,25.50
2018-08-09T12:17:51.749Z,24.80
2018-08-09T12:20:20.129Z,24.10
2018-08-09T12:22:48.490Z,23.30
2018-08-09T12:25:17.014Z,22.40
2018-08-09T12:27:45.435Z,21.20
2018-08-09T12:30:15.263Z,20.80
2018-08-09T12:32:44.066Z,20.30
2018-08-09T12:35:13.500Z,20.10
2018-08-09T12:37:42.804Z,20.10
2018-08-09T12:40:11.963Z,20.20
2018-08-09T12:42:40.948Z,20.20
2018-08-09T12:45:12.063Z,20.10
2018-08-09T12:47:40.560Z,20.20
2018-08-09T12:50:11.655Z,20.40
2018-08-09T12:52:41.121Z,20.30
2018-08-09T12:55:10.018Z,20.30
2018-08-09T12:57:38.394Z,20.30
2018-08-09T13:00:08.963Z,20.50
2018-08-09T13:02:37.353Z,20.30
2018-08-09T13:05:07.408Z,20.40
2018-08-09T13:07:36.099Z,20.40
2018-08-09T13:10:06.195Z,20.30
2018-08-09T13:12:34.534Z,20.40
2018-08-09T13:15:03.174Z,20.80
2018-08-09T13:17:31.536Z,21.00
2018-08-09T13:19:59.919Z,21.10
2018-08-09T13:22:28.299Z,21.30
2018-08-09T13:24:56.658Z,21.60
2018-08-09T13:27:25.041Z,21.80
2018-08-09T13:29:53.385Z,21.80
2018-08-09T13:32:21.717Z,21.80
2018-08-09T13:34:50.091Z,21.80
2018-08-09T13:37:18.388Z,21.80
2018-08-09T13:39:46.690Z,21.90
2018-08-09T13:42:15.029Z,22.00
2018-08-09T13:44:43.359Z,22.00
2018-08-09T13:47:11.737Z,22.00
2018-08-09T13:49:40.167Z,21.90
2018-08-09T13:52:08.588Z,21.90
2018-08-09T13:54:36.991Z,22.00
2018-08-09T13:57:05.511Z,22.10
2018-08-09T13:59:33.914Z,22.00
2018-08-09T14:02:02.321Z,22.00
2018-08-09T14:04:30.740Z,22.00
2018-08-09T14:06:59.219Z,22.00
2018-08-09T14:09:27.655Z,22.00
2018-08-09T14:11:56.044Z,22.10
2018-08-09T14:14:24.461Z,22.30
2018-08-09T14:16:52.839Z,22.10
2018-08-09T14:19:21.215Z,22.00
2018-08-09T14:21:49.643Z,21.60
2018-08-09T14:24:18.051Z,22.00
2018-08-09T14:26:46.508Z,22.10
2018-08-09T14:29:14.899Z,22.10
2018-08-09T14:31:43.310Z,22.50
2018-08-09T14:34:11.682Z,22.70
2018-08-09T14:36:40.078Z,22.60
2018-08-09T14:39:09.780Z,22.70
2018-08-09T14:41:38.112Z,23.00
2018-08-09T14:44:06.855Z,23.30
2018-08-09T14:46:35.822Z,23.30
2018-08-09T14:49:04.242Z,23.30
2018-08-09T14:51:32.548Z,23.10
2018-08-09T14:54:01.088Z,22.80
2018-08-09T14:56:29.503Z,22.70
2018-08-09T14:58:57.917Z,22.70
2018-08-09T15:01:26.316Z,22.70
2018-08-09T15:03:54.746Z,22.60
2018-08-09T15:06:23.178Z,22.60
2018-08-09T15:08:51.573Z,22.70
2018-08-09T15:11:19.892Z,22.60
2018-08-09T15:13:48.218Z,22.60
2018-08-09T15:16:16.628Z,22.70
2018-08-09T15:18:45.036Z,22.90
2018-08-09T15:21:13.360Z,22.90
2018-08-09T15:23:41.631Z,22.80
2018-08-09T15:26:09.982Z,22.80
2018-08-09T15:28:38.287Z,22.70
2018-08-09T15:31:06.718Z,22.70
2018-08-09T15:33:35.130Z,22.70
2018-08-09T15:36:03.530Z,22.60
2018-08-09T15:38:31.841Z,22.60
2018-08-09T15:41:00.171Z,22.70
2018-08-09T15:43:28.444Z,22.70
2018-08-09T15:45:56.802Z,22.80
2018-08-09T15:48:25.217Z,22.80
2018-08-09T15:50:53.589Z,22.90
2018-08-09T15:53:21.883Z,22.90
2018-08-09T15:55:50.136Z,22.90
2018-08-09T15:58:18.460Z,23.00
2018-08-09T16:00:47.409Z,23.00
2018-08-09T16:03:15.690Z,23.00
2018-08-09T16:05:43.998Z,23.00
2018-08-09T16:08:12.236Z,23.10
2018-08-09T16:10:40.592Z,23.10
2018-08-09T16:13:09.133Z,23.20
2018-08-09T16:15:37.374Z,23.20
2018-08-09T16:18:05.673Z,23.20
2018-08-09T16:20:33.948Z,23.20
2018-08-09T16:23:02.281Z,23.30
2018-08-09T16:25:30.588Z,23.20
2018-08-09T16:27:58.901Z,23.00
2018-08-09T16:30:27.199Z,23.10
2018-08-09T16:32:55.547Z,23.10
2018-08-09T16:35:23.822Z,23.20
2018-08-09T16:37:52.113Z,23.20
2018-08-09T16:40:22.061Z,23.20
2018-08-09T16:42:50.413Z,23.20
2018-08-09T16:45:19.937Z,23.10
2018-08-09T16:47:48.595Z,22.90
2018-08-09T16:50:19.156Z,22.70
2018-08-09T16:52:48.551Z,22.60
2018-08-09T16:55:17.669Z,22.60
2018-08-09T16:57:45.936Z,22.50
2018-08-09T17:00:19.123Z,22.50
2018-08-09T17:02:47.509Z,22.60
2018-08-09T17:05:18.831Z,22.60
2018-08-09T17:07:47.271Z,22.60
2018-08-09T17:10:17.176Z,22.60
2018-08-09T17:12:45.475Z,22.70
2018-08-09T17:15:18.151Z,22.60
2018-08-09T17:17:46.361Z,22.60
2018-08-09T17:20:20.243Z,22.70
2018-08-09T17:22:48.612Z,22.50
2018-08-09T17:25:17.136Z,22.60
2018-08-09T17:27:46.392Z,22.60
2018-08-09T17:30:16.153Z,22.70
2018-08-09T17:32:44.524Z,22.60
2018-08-09T17:35:14.644Z,22.70
2018-08-09T17:37:43.214Z,22.70
2018-08-09T17:40:21.129Z,22.70
2018-08-09T17:42:50.500Z,22.70
2018-08-09T17:45:20.065Z,22.60
2018-08-09T17:47:48.473Z,22.60
2018-08-09T17:50:16.841Z,22.50
2018-08-09T17:52:45.140Z,22.50
2018-08-09T17:55:14.408Z,22.40
2018-08-09T17:57:43.736Z,22.40
2018-08-09T18:00:14.454Z,22.20
2018-08-09T18:02:42.867Z,22.10
2018-08-09T18:05:11.162Z,22.10
2018-08-09T18:07:39.517Z,22.00
2018-08-09T18:10:11.428Z,22.00
2018-08-09T18:12:39.711Z,22.00
2018-08-09T18:15:08.126Z,21.90
2018-08-09T18:17:36.491Z,21.90
2018-08-09T18:20:09.027Z,21.90
2018-08-09T18:22:37.341Z,21.80
2018-08-09T18:25:06.862Z,21.80
2018-08-09T18:27:35.168Z,21.80
2018-08-09T18:30:03.669Z,21.80
2018-08-09T18:32:32.066Z,21.80
2018-08-09T18:35:00.433Z,21.80
2018-08-09T18:37:28.769Z,21.70
2018-08-09T18:39:57.139Z,21.80
2018-08-09T18:42:25.491Z,21.80
2018-08-09T18:44:53.825Z,21.80
2018-08-09T18:47:22.182Z,21.70
2018-08-09T18:49:50.519Z,21.70
2018-08-09T18:52:18.967Z,21.60
2018-08-09T18:54:47.420Z,21.60
2018-08-09T18:57:15.830Z,21.60
2018-08-09T18:59:44.113Z,21.60
2018-08-09T19:02:12.512Z,21.60
2018-08-09T19:04:40.766Z,21.60
2018-08-09T19:07:09.065Z,21.60
2018-08-09T19:09:37.421Z,21.60
2018-08-09T19:12:05.980Z,21.60
2018-08-09T19:14:34.381Z,21.60
2018-08-09T19:17:02.631Z,21.60
2018-08-09T19:19:30.956Z,21.50
2018-08-09T19:21:59.346Z,21.50
2018-08-09T19:24:27.643Z,21.50
2018-08-09T19:26:56.004Z,21.50
2018-08-09T19:29:24.244Z,21.50
2018-08-09T19:31:52.571Z,21.40
2018-08-09T19:34:20.869Z,21.40
2018-08-09T19:36:49.286Z,21.30
2018-08-09T19:39:17.601Z,21.30
2018-08-09T19:41:45.985Z,21.30
2018-08-09T19:44:15.221Z,21.20
2018-08-09T19:46:43.567Z,21.10
2018-08-09T19:49:11.853Z,21.00
2018-08-09T19:51:40.169Z,21.00
2018-08-09T19:54:09.292Z,21.00
2018-08-09T19:56:37.594Z,20.90
2018-08-09T19:59:06.304Z,20.80
2018-08-09T20:01:34.823Z,20.80
2018-08-09T20:04:03.338Z,20.70
2018-08-09T20:06:31.679Z,20.60
2018-08-09T20:09:00.031Z,20.60
2018-08-09T20:11:28.433Z,20.60
2018-08-09T20:13:56.782Z,20.50
2018-08-09T20:16:25.147Z,20.40
2018-08-09T20:18:53.442Z,20.30
2018-08-09T20:21:21.689Z,20.30
2018-08-09T20:23:49.985Z,20.30
2018-08-09T20:26:18.268Z,20.20
2018-08-09T20:28:46.621Z,20.20
2018-08-09T20:31:15.038Z,20.10
2018-08-09T20:33:43.364Z,20.10
2018-08-09T20:36:11.724Z,20.00
2018-08-09T20:38:40.053Z,19.90
2018-08-09T20:41:08.372Z,19.90
2018-08-09T20:43:36.702Z,19.80
2018-08-09T20:46:05.349Z,19.70
2018-08-09T20:48:33.681Z,19.70
2018-08-09T20:51:02.062Z,19.60
2018-08-09T20:53:30.430Z,19.70
2018-08-09T20:55:58.722Z,19.60
2018-08-09T20:58:27.049Z,19.60
2018-08-09T21:00:55.380Z,19.60
2018-08-09T21:03:23.730Z,19.50
2018-08-09T21:05:52.102Z,19.50
2018-08-09T21:08:20.420Z,19.50
2018-08-09T21:10:48.661Z,19.50
2018-08-09T21:13:16.977Z,19.40
2018-08-09T21:15:45.286Z,19.40
2018-08-09T21:18:13.671Z,19.30
2018-08-09T21:20:42.095Z,19.20
2018-08-09T21:23:10.498Z,19.30
2018-08-09T21:25:38.945Z,19.30
2018-08-09T21:28:07.459Z,19.30
2018-08-09T21:30:36.367Z,19.30
2018-08-09T21:33:04.797Z,19.20
2018-08-09T21:35:33.113Z,19.20
2018-08-09T21:38:01.469Z,19.20
2018-08-09T21:40:29.797Z,19.20
2018-08-09T21:42:58.121Z,19.20
2018-08-09T21:45:26.421Z,19.20
2018-08-09T21:47:54.708Z,19.20
2018-08-09T21:50:23.170Z,19.30
2018-08-09T21:52:51.573Z,19.20
2018-08-09T21:55:19.918Z,19.20
2018-08-09T21:57:48.467Z,19.20
2018-08-09T22:00:48.693Z,19.20
2018-08-09T22:03:18.258Z,19.20
2018-08-09T22:05:51.893Z,19.20
2018-08-09T22:08:25.617Z,19.20
2018-08-09T22:10:59.263Z,19.10
2018-08-09T22:13:33.056Z,19.00
2018-08-09T22:16:06.849Z,19.00
2018-08-09T22:18:40.630Z,18.90
2018-08-09T22:21:14.342Z,18.90
2018-08-09T22:23:42.737Z,18.80
2018-08-09T22:26:11.694Z,18.80
2018-08-09T22:28:40.142Z,18.80
2018-08-09T22:31:08.563Z,18.80
2018-08-09T22:33:36.996Z,18.80
2018-08-09T22:36:05.567Z,18.80
2018-08-09T22:38:33.829Z,18.60
2018-08-09T22:41:03.138Z,18.50
2018-08-09T22:43:31.466Z,18.40
2018-08-09T22:45:59.788Z,18.30
2018-08-09T22:48:28.065Z,18.30
2018-08-09T22:50:56.433Z,18.30
2018-08-09T22:53:24.843Z,18.20
2018-08-09T22:55:53.177Z,18.20
2018-08-09T22:58:21.595Z,18.10
2018-08-09T23:00:49.997Z,17.90
2018-08-09T23:03:21.509Z,18.00
2018-08-09T23:05:49.916Z,17.80
2018-08-09T23:08:18.376Z,17.80
2018-08-09T23:10:46.877Z,17.80
2018-08-09T23:13:15.829Z,17.80
2018-08-09T23:15:44.962Z,17.70
2018-08-09T23:18:13.394Z,17.60
2018-08-09T23:20:41.883Z,17.30
2018-08-09T23:23:10.361Z,17.20
2018-08-09T23:25:38.806Z,17.20
2018-08-09T23:28:07.701Z,17.20
2018-08-09T23:30:36.040Z,17.30
2018-08-09T23:33:04.489Z,17.10
2018-08-09T23:35:32.912Z,16.80
2018-08-09T23:38:01.298Z,16.80
2018-08-09T23:40:29.779Z,16.70
2018-08-09T23:42:58.225Z,16.70
2018-08-09T23:45:26.553Z,16.60
2018-08-09T23:47:55.006Z,16.40
2018-08-09T23:50:23.435Z,16.20
2018-08-09T23:52:51.827Z,16.20
2018-08-09T23:55:20.211Z,16.00
2018-08-09T23:57:48.678Z,16.00
